sensor_id;sensor_type;location;lat;lon;timestamp;P1;durP1;ratioP1;P2;durP2;ratioP2
17193;SDS011;8713;48.388;10.928;2023-03-04T08:19:33;19.02;;;9.15;;
17193;SDS011;8713;48.388;10.928;2023-03-04T08:21:07;22.95;;;10.48;;
17193;SDS011;8713;48.388;10.928;2023-03-04T08:22:38;23.95;;;11.82;;
17193;SDS011;8713;48.388;10.928;2023-03-04T08:24:08;26.38;;;11.07;;
17193;SDS011;8713;48.388;10.928;2023-03-04T08:25:39;19.67;;;9.48;;
17193;SDS011;8713;48.388;10.928;2023-03-04T08:27:09;19.05;;;9.30;;
17193;SDS011;8713;48.388;10.928;2023-03-04T08:28:39;18.58;;;8.43;;
17193;SDS011;8713;48.388;10.928;2023-03-04T08:30:09;14.65;;;6.95;;
17193;SDS011;8713;48.388;10.928;2023-03-04T08:31:39;18.63;;;9.23;;
17193;SDS011;8713;48.388;10.928;2023-03-04T08:33:10;20.52;;;8.20;;
17193;SDS011;8713;48.388;10.928;2023-03-04T08:34:39;19.27;;;10.30;;
17193;SDS011;8713;48.388;10.928;2023-03-04T08:36:10;17.88;;;8.23;;
17193;SDS011;8713;48.388;10.928;2023-03-04T08:37:39;17.67;;;8.73;;
17193;SDS011;8713;48.388;10.928;2023-03-04T08:39:10;21.25;;;10.05;;
17193;SDS011;8713;48.388;10.928;2023-03-04T08:40:41;21.67;;;8.98;;
17193;SDS011;8713;48.388;10.928;2023-03-04T08:42:11;19.50;;;9.23;;
17193;SDS011;8713;48.388;10.928;2023-03-04T08:43:41;19.85;;;8.70;;
17193;SDS011;8713;48.388;10.928;2023-03-04T08:45:12;21.40;;;9.82;;
17193;SDS011;8713;48.388;10.928;2023-03-04T08:46:42;18.80;;;9.20;;
17193;SDS011;8713;48.388;10.928;2023-03-04T08:48:11;18.05;;;8.45;;
17193;SDS011;8713;48.388;10.928;2023-03-04T08:49:41;16.27;;;8.20;;
17193;SDS011;8713;48.388;10.928;2023-03-04T08:51:07;19.58;;;9.07;;
17193;SDS011;8713;48.388;10.928;2023-03-04T08:52:19;17.77;;;9.32;;
17193;SDS011;8713;48.388;10.928;2023-03-04T08:53:46;17.27;;;8.32;;
17193;SDS011;8713;48.388;10.928;2023-03-04T08:54:56;18.70;;;8.25;;
17193;SDS011;8713;48.388;10.928;2023-03-04T08:56:24;15.48;;;7.22;;
17193;SDS011;8713;48.388;10.928;2023-03-04T08:57:52;13.10;;;6.80;;
17193;SDS011;8713;48.388;10.928;2023-03-04T08:59:21;10.02;;;5.25;;
17193;SDS011;8713;48.388;10.928;2023-03-04T09:00:49;13.73;;;5.60;;
17193;SDS011;8713;48.388;10.928;2023-03-04T09:02:19;13.88;;;6.07;;
17193;SDS011;8713;48.388;10.928;2023-03-04T09:03:43;11.07;;;5.82;;
17193;SDS011;8713;48.388;10.928;2023-03-04T09:04:56;13.30;;;6.63;;
17193;SDS011;8713;48.388;10.928;2023-03-04T09:06:23;12.05;;;6.43;;
17193;SDS011;8713;48.388;10.928;2023-03-04T09:07:52;14.82;;;6.93;;
17193;SDS011;8713;48.388;10.928;2023-03-04T09:09:21;16.42;;;7.43;;
17193;SDS011;8713;48.388;10.928;2023-03-04T09:10:43;15.70;;;7.47;;
17193;SDS011;8713;48.388;10.928;2023-03-04T09:11:59;14.20;;;7.32;;
17193;SDS011;8713;48.388;10.928;2023-03-04T09:13:09;15.48;;;7.43;;
17193;SDS011;8713;48.388;10.928;2023-03-04T09:14:23;13.63;;;7.60;;
17193;SDS011;8713;48.388;10.928;2023-03-04T09:15:45;14.85;;;7.90;;
17193;SDS011;8713;48.388;10.928;2023-03-04T09:17:17;13.95;;;6.90;;
17193;SDS011;8713;48.388;10.928;2023-03-04T09:18:26;17.65;;;8.82;;
17193;SDS011;8713;48.388;10.928;2023-03-04T09:19:55;13.23;;;6.57;;
17193;SDS011;8713;48.388;10.928;2023-03-04T09:21:24;12.98;;;7.32;;
17193;SDS011;8713;48.388;10.928;2023-03-04T09:22:33;16.67;;;8.27;;
17193;SDS011;8713;48.388;10.928;2023-03-04T09:24:02;15.95;;;7.78;;
17193;SDS011;8713;48.388;10.928;2023-03-04T09:25:30;15.88;;;7.38;;
17193;SDS011;8713;48.388;10.928;2023-03-04T09:26:58;13.07;;;6.50;;
17193;SDS011;8713;48.388;10.928;2023-03-04T09:28:28;15.27;;;7.82;;
17193;SDS011;8713;48.388;10.928;2023-03-04T09:29:56;11.05;;;6.22;;
17193;SDS011;8713;48.388;10.928;2023-03-04T09:31:24;15.68;;;6.97;;
17193;SDS011;8713;48.388;10.928;2023-03-04T09:32:50;17.90;;;8.05;;
17193;SDS011;8713;48.388;10.928;2023-03-04T09:34:19;15.65;;;7.90;;
17193;SDS011;8713;48.388;10.928;2023-03-04T09:35:47;15.60;;;8.07;;
17193;SDS011;8713;48.388;10.928;2023-03-04T09:37:16;17.75;;;7.85;;
17193;SDS011;8713;48.388;10.928;2023-03-04T09:38:45;17.35;;;8.27;;
17193;SDS011;8713;48.388;10.928;2023-03-04T09:40:15;14.93;;;8.02;;
17193;SDS011;8713;48.388;10.928;2023-03-04T09:41:36;16.00;;;8.48;;
17193;SDS011;8713;48.388;10.928;2023-03-04T09:43:14;14.07;;;7.55;;
17193;SDS011;8713;48.388;10.928;2023-03-04T09:44:46;14.70;;;6.75;;
17193;SDS011;8713;48.388;10.928;2023-03-04T09:46:17;16.27;;;7.90;;
17193;SDS011;8713;48.388;10.928;2023-03-04T09:47:51;15.82;;;7.10;;
17193;SDS011;8713;48.388;10.928;2023-03-04T09:49:20;14.63;;;8.10;;
17193;SDS011;8713;48.388;10.928;2023-03-04T09:50:57;14.65;;;6.60;;
17193;SDS011;8713;48.388;10.928;2023-03-04T09:54:37;15.85;;;7.60;;
17193;SDS011;8713;48.388;10.928;2023-03-04T09:56:36;15.07;;;6.55;;
17193;SDS011;8713;48.388;10.928;2023-03-04T09:58:14;13.45;;;6.78;;
17193;SDS011;8713;48.388;10.928;2023-03-04T10:00:02;12.77;;;6.53;;
17193;SDS011;8713;48.388;10.928;2023-03-04T10:01:43;16.10;;;6.25;;
17193;SDS011;8713;48.388;10.928;2023-03-04T10:03:32;15.35;;;7.43;;
17193;SDS011;8713;48.388;10.928;2023-03-04T10:05:18;18.45;;;9.48;;
17193;SDS011;8713;48.388;10.928;2023-03-04T10:06:49;16.08;;;8.02;;
17193;SDS011;8713;48.388;10.928;2023-03-04T10:08:33;12.38;;;5.85;;
17193;SDS011;8713;48.388;10.928;2023-03-04T10:10:41;15.70;;;7.30;;
17193;SDS011;8713;48.388;10.928;2023-03-04T10:12:08;17.33;;;8.50;;
17193;SDS011;8713;48.388;10.928;2023-03-04T10:15:32;13.90;;;6.88;;
17193;SDS011;8713;48.388;10.928;2023-03-04T10:17:28;9.60;;;4.55;;
17193;SDS011;8713;48.388;10.928;2023-03-04T10:19:18;18.27;;;8.55;;
17193;SDS011;8713;48.388;10.928;2023-03-04T10:24:18;16.50;;;7.80;;
17193;SDS011;8713;48.388;10.928;2023-03-04T10:25:34;15.43;;;6.93;;
17193;SDS011;8713;48.388;10.928;2023-03-04T10:26:57;14.02;;;6.60;;
17193;SDS011;8713;48.388;10.928;2023-03-04T10:28:29;15.15;;;7.82;;
17193;SDS011;8713;48.388;10.928;2023-03-04T10:29:38;14.20;;;7.20;;
17193;SDS011;8713;48.388;10.928;2023-03-04T10:32:49;12.35;;;5.63;;
17193;SDS011;8713;48.388;10.928;2023-03-04T10:34:17;14.00;;;6.63;;
17193;SDS011;8713;48.388;10.928;2023-03-04T10:35:50;2.33;;;0.68;;
17193;SDS011;8713;48.388;10.928;2023-03-04T10:37:43;9.20;;;4.15;;
17193;SDS011;8713;48.388;10.928;2023-03-04T10:39:11;13.05;;;5.32;;
17193;SDS011;8713;48.388;10.928;2023-03-04T10:40:46;6.13;;;3.25;;
17193;SDS011;8713;48.388;10.928;2023-03-04T10:41:58;10.60;;;4.50;;
17193;SDS011;8713;48.388;10.928;2023-03-04T10:45:25;12.65;;;5.50;;
17193;SDS011;8713;48.388;10.928;2023-03-04T10:46:58;12.43;;;4.75;;
17193;SDS011;8713;48.388;10.928;2023-03-04T10:48:27;12.90;;;6.35;;
17193;SDS011;8713;48.388;10.928;2023-03-04T10:50:01;15.30;;;7.20;;
17193;SDS011;8713;48.388;10.928;2023-03-04T10:51:32;11.57;;;5.15;;
17193;SDS011;8713;48.388;10.928;2023-03-04T10:53:32;9.65;;;4.18;;
17193;SDS011;8713;48.388;10.928;2023-03-04T10:55:05;14.48;;;6.65;;
17193;SDS011;8713;48.388;10.928;2023-03-04T10:56:53;12.65;;;5.97;;
17193;SDS011;8713;48.388;10.928;2023-03-04T10:58:06;13.10;;;6.22;;
17193;SDS011;8713;48.388;10.928;2023-03-04T11:01:04;16.30;;;7.50;;
17193;SDS011;8713;48.388;10.928;2023-03-04T11:02:15;14.95;;;7.93;;
17193;SDS011;8713;48.388;10.928;2023-03-04T11:06:26;13.60;;;7.53;;
17193;SDS011;8713;48.388;10.928;2023-03-04T11:07:58;14.15;;;6.32;;
17193;SDS011;8713;48.388;10.928;2023-03-04T11:09:29;12.30;;;6.20;;
17193;SDS011;8713;48.388;10.928;2023-03-04T11:10:58;13.18;;;7.05;;
17193;SDS011;8713;48.388;10.928;2023-03-04T11:12:31;11.80;;;6.80;;
17193;SDS011;8713;48.388;10.928;2023-03-04T11:13:49;11.45;;;6.20;;
17193;SDS011;8713;48.388;10.928;2023-03-04T11:15:20;10.27;;;4.13;;
17193;SDS011;8713;48.388;10.928;2023-03-04T11:18:08;16.48;;;7.00;;
17193;SDS011;8713;48.388;10.928;2023-03-04T11:19:34;13.27;;;7.10;;
17193;SDS011;8713;48.388;10.928;2023-03-04T11:21:07;11.63;;;5.97;;
17193;SDS011;8713;48.388;10.928;2023-03-04T11:22:43;14.93;;;6.38;;
17193;SDS011;8713;48.388;10.928;2023-03-04T11:24:13;13.65;;;6.78;;
17193;SDS011;8713;48.388;10.928;2023-03-04T11:25:54;13.73;;;7.10;;
17193;SDS011;8713;48.388;10.928;2023-03-04T11:27:43;7.65;;;3.20;;
17193;SDS011;8713;48.388;10.928;2023-03-04T11:31:06;9.35;;;4.45;;
17193;SDS011;8713;48.388;10.928;2023-03-04T11:32:39;14.40;;;6.78;;
17193;SDS011;8713;48.388;10.928;2023-03-04T11:34:23;10.55;;;4.63;;
17193;SDS011;8713;48.388;10.928;2023-03-04T11:36:22;9.25;;;5.15;;
17193;SDS011;8713;48.388;10.928;2023-03-04T11:38:07;14.07;;;6.55;;
17193;SDS011;8713;48.388;10.928;2023-03-04T11:39:45;9.93;;;4.82;;
17193;SDS011;8713;48.388;10.928;2023-03-04T11:41:03;9.68;;;5.22;;
17193;SDS011;8713;48.388;10.928;2023-03-04T11:43:51;11.30;;;6.60;;
17193;SDS011;8713;48.388;10.928;2023-03-04T11:45:21;13.10;;;5.43;;
17193;SDS011;8713;48.388;10.928;2023-03-04T11:49:13;14.88;;;6.40;;
17193;SDS011;8713;48.388;10.928;2023-03-04T11:51:02;9.75;;;3.88;;
17193;SDS011;8713;48.388;10.928;2023-03-04T11:52:41;10.95;;;4.68;;
17193;SDS011;8713;48.388;10.928;2023-03-04T11:54:53;13.68;;;6.05;;
17193;SDS011;8713;48.388;10.928;2023-03-04T11:56:36;7.18;;;3.63;;
17193;SDS011;8713;48.388;10.928;2023-03-04T11:59:55;12.38;;;6.32;;
17193;SDS011;8713;48.388;10.928;2023-03-04T12:05:33;15.88;;;8.35;;
17193;SDS011;8713;48.388;10.928;2023-03-04T12:07:35;12.00;;;6.43;;
17193;SDS011;8713;48.388;10.928;2023-03-04T12:09:32;11.90;;;6.50;;
17193;SDS011;8713;48.388;10.928;2023-03-04T12:11:18;13.75;;;6.20;;
17193;SDS011;8713;48.388;10.928;2023-03-04T12:13:04;14.30;;;6.30;;
17193;SDS011;8713;48.388;10.928;2023-03-04T12:14:50;11.57;;;6.30;;
17193;SDS011;8713;48.388;10.928;2023-03-04T12:28:50;11.73;;;5.80;;
17193;SDS011;8713;48.388;10.928;2023-03-04T12:36:13;10.18;;;5.80;;
17193;SDS011;8713;48.388;10.928;2023-03-04T12:44:54;10.20;;;5.97;;
17193;SDS011;8713;48.388;10.928;2023-03-04T12:46:26;12.25;;;6.18;;
17193;SDS011;8713;48.388;10.928;2023-03-04T12:48:29;10.07;;;5.50;;
17193;SDS011;8713;48.388;10.928;2023-03-04T12:50:17;12.27;;;5.47;;
17193;SDS011;8713;48.388;10.928;2023-03-04T12:56:00;11.60;;;6.05;;
17193;SDS011;8713;48.388;10.928;2023-03-04T12:57:30;10.75;;;5.68;;
17193;SDS011;8713;48.388;10.928;2023-03-04T12:58:40;10.40;;;5.65;;
17193;SDS011;8713;48.388;10.928;2023-03-04T13:00:15;14.52;;;7.00;;
17193;SDS011;8713;48.388;10.928;2023-03-04T13:01:55;12.80;;;5.13;;
17193;SDS011;8713;48.388;10.928;2023-03-04T13:09:01;10.35;;;5.10;;
17193;SDS011;8713;48.388;10.928;2023-03-04T13:10:44;10.55;;;5.85;;
17193;SDS011;8713;48.388;10.928;2023-03-04T13:12:18;11.82;;;4.75;;
17193;SDS011;8713;48.388;10.928;2023-03-04T13:14:00;11.27;;;5.20;;
17193;SDS011;8713;48.388;10.928;2023-03-04T13:15:34;11.18;;;5.95;;
17193;SDS011;8713;48.388;10.928;2023-03-04T13:17:35;11.85;;;5.50;;
17193;SDS011;8713;48.388;10.928;2023-03-04T13:21:27;10.07;;;4.57;;
17193;SDS011;8713;48.388;10.928;2023-03-04T13:24:44;10.85;;;5.90;;
17193;SDS011;8713;48.388;10.928;2023-03-04T13:26:18;10.02;;;5.63;;
17193;SDS011;8713;48.388;10.928;2023-03-04T13:28:04;11.52;;;6.32;;
17193;SDS011;8713;48.388;10.928;2023-03-04T13:29:36;9.23;;;4.10;;
17193;SDS011;8713;48.388;10.928;2023-03-04T13:32:37;9.50;;;4.95;;
17193;SDS011;8713;48.388;10.928;2023-03-04T13:34:09;12.02;;;5.65;;
17193;SDS011;8713;48.388;10.928;2023-03-04T13:36:31;10.10;;;5.72;;
17193;SDS011;8713;48.388;10.928;2023-03-04T13:38:02;12.95;;;6.35;;
17193;SDS011;8713;48.388;10.928;2023-03-04T13:41:29;9.27;;;4.80;;
17193;SDS011;8713;48.388;10.928;2023-03-04T13:45:28;13.50;;;5.38;;
17193;SDS011;8713;48.388;10.928;2023-03-04T13:47:16;9.27;;;5.07;;
17193;SDS011;8713;48.388;10.928;2023-03-04T13:50:22;11.73;;;5.63;;
17193;SDS011;8713;48.388;10.928;2023-03-04T13:52:26;11.90;;;6.38;;
17193;SDS011;8713;48.388;10.928;2023-03-04T13:54:15;9.10;;;4.45;;
17193;SDS011;8713;48.388;10.928;2023-03-04T13:56:18;3.17;;;1.88;;
17193;SDS011;8713;48.388;10.928;2023-03-04T13:57:49;11.93;;;6.07;;
17193;SDS011;8713;48.388;10.928;2023-03-04T13:59:33;5.80;;;2.85;;
17193;SDS011;8713;48.388;10.928;2023-03-04T14:03:11;12.82;;;5.55;;
17193;SDS011;8713;48.388;10.928;2023-03-04T14:04:45;10.48;;;5.45;;
17193;SDS011;8713;48.388;10.928;2023-03-04T14:06:25;11.02;;;5.75;;
17193;SDS011;8713;48.388;10.928;2023-03-04T14:07:56;10.40;;;5.45;;
17193;SDS011;8713;48.388;10.928;2023-03-04T14:09:57;11.75;;;6.13;;
17193;SDS011;8713;48.388;10.928;2023-03-04T14:11:36;10.18;;;5.35;;
17193;SDS011;8713;48.388;10.928;2023-03-04T14:13:09;9.73;;;5.28;;
17193;SDS011;8713;48.388;10.928;2023-03-04T14:14:42;9.88;;;5.32;;
17193;SDS011;8713;48.388;10.928;2023-03-04T14:16:19;7.85;;;4.18;;
17193;SDS011;8713;48.388;10.928;2023-03-04T14:17:30;6.45;;;3.28;;
17193;SDS011;8713;48.388;10.928;2023-03-04T14:19:02;11.27;;;5.50;;
17193;SDS011;8713;48.388;10.928;2023-03-04T14:20:34;8.55;;;4.18;;
17193;SDS011;8713;48.388;10.928;2023-03-04T14:22:20;10.48;;;5.35;;
17193;SDS011;8713;48.388;10.928;2023-03-04T14:23:44;9.70;;;4.45;;
17193;SDS011;8713;48.388;10.928;2023-03-04T14:26:41;8.75;;;4.40;;
17193;SDS011;8713;48.388;10.928;2023-03-04T14:28:11;13.20;;;6.55;;
17193;SDS011;8713;48.388;10.928;2023-03-04T14:29:43;8.45;;;4.05;;
17193;SDS011;8713;48.388;10.928;2023-03-04T14:31:15;13.35;;;7.28;;
17193;SDS011;8713;48.388;10.928;2023-03-04T14:32:48;11.27;;;5.25;;
17193;SDS011;8713;48.388;10.928;2023-03-04T14:33:58;13.20;;;5.40;;
17193;SDS011;8713;48.388;10.928;2023-03-04T14:35:29;10.18;;;4.80;;
17193;SDS011;8713;48.388;10.928;2023-03-04T14:36:58;6.95;;;3.55;;
17193;SDS011;8713;48.388;10.928;2023-03-04T14:38:28;10.27;;;5.32;;
17193;SDS011;8713;48.388;10.928;2023-03-04T14:39:40;10.82;;;5.30;;
17193;SDS011;8713;48.388;10.928;2023-03-04T14:40:51;9.75;;;5.10;;
17193;SDS011;8713;48.388;10.928;2023-03-04T14:42:24;8.32;;;4.05;;
17193;SDS011;8713;48.388;10.928;2023-03-04T14:44:41;10.70;;;5.10;;
17193;SDS011;8713;48.388;10.928;2023-03-04T14:46:04;8.23;;;4.15;;
17193;SDS011;8713;48.388;10.928;2023-03-04T14:47:39;10.73;;;5.25;;
17193;SDS011;8713;48.388;10.928;2023-03-04T14:49:12;7.45;;;3.97;;
17193;SDS011;8713;48.388;10.928;2023-03-04T14:50:31;12.05;;;6.63;;
17193;SDS011;8713;48.388;10.928;2023-03-04T14:51:42;13.38;;;7.20;;
17193;SDS011;8713;48.388;10.928;2023-03-04T14:53:20;9.65;;;4.90;;
17193;SDS011;8713;48.388;10.928;2023-03-04T14:55:00;10.88;;;5.65;;
17193;SDS011;8713;48.388;10.928;2023-03-04T14:56:42;11.80;;;5.78;;
17193;SDS011;8713;48.388;10.928;2023-03-04T14:57:53;11.55;;;6.18;;
17193;SDS011;8713;48.388;10.928;2023-03-04T14:59:34;9.60;;;5.05;;
17193;SDS011;8713;48.388;10.928;2023-03-04T15:01:16;11.80;;;5.63;;
17193;SDS011;8713;48.388;10.928;2023-03-04T15:02:50;9.18;;;3.88;;
17193;SDS011;8713;48.388;10.928;2023-03-04T15:04:27;9.23;;;4.05;;
17193;SDS011;8713;48.388;10.928;2023-03-04T15:05:55;2.50;;;1.35;;
17193;SDS011;8713;48.388;10.928;2023-03-04T15:07:48;12.50;;;5.28;;
17193;SDS011;8713;48.388;10.928;2023-03-04T15:09:21;11.68;;;6.15;;
17193;SDS011;8713;48.388;10.928;2023-03-04T15:10:55;11.57;;;5.95;;
17193;SDS011;8713;48.388;10.928;2023-03-04T15:12:29;11.18;;;5.82;;
17193;SDS011;8713;48.388;10.928;2023-03-04T15:14:00;10.07;;;5.07;;
17193;SDS011;8713;48.388;10.928;2023-03-04T15:15:29;10.38;;;5.35;;
17193;SDS011;8713;48.388;10.928;2023-03-04T15:16:59;10.88;;;6.10;;
17193;SDS011;8713;48.388;10.928;2023-03-04T15:18:27;11.00;;;4.55;;
17193;SDS011;8713;48.388;10.928;2023-03-04T15:20:00;10.90;;;5.57;;
17193;SDS011;8713;48.388;10.928;2023-03-04T15:21:46;10.75;;;5.63;;
17193;SDS011;8713;48.388;10.928;2023-03-04T15:23:14;8.27;;;4.68;;
17193;SDS011;8713;48.388;10.928;2023-03-04T15:24:42;10.57;;;5.18;;
17193;SDS011;8713;48.388;10.928;2023-03-04T15:26:07;12.15;;;5.85;;
17193;SDS011;8713;48.388;10.928;2023-03-04T15:27:36;11.15;;;5.35;;
17193;SDS011;8713;48.388;10.928;2023-03-04T15:29:14;14.57;;;6.93;;
17193;SDS011;8713;48.388;10.928;2023-03-04T15:30:45;12.02;;;6.50;;
17193;SDS011;8713;48.388;10.928;2023-03-04T15:32:14;7.10;;;3.20;;
17193;SDS011;8713;48.388;10.928;2023-03-04T15:33:23;9.38;;;4.93;;
17193;SDS011;8713;48.388;10.928;2023-03-04T15:34:52;10.80;;;5.07;;
17193;SDS011;8713;48.388;10.928;2023-03-04T15:36:21;9.30;;;4.97;;
17193;SDS011;8713;48.388;10.928;2023-03-04T15:37:50;11.93;;;5.78;;
17193;SDS011;8713;48.388;10.928;2023-03-04T15:39:21;9.65;;;5.35;;
17193;SDS011;8713;48.388;10.928;2023-03-04T15:40:32;12.68;;;6.70;;
17193;SDS011;8713;48.388;10.928;2023-03-04T15:41:46;9.25;;;4.82;;
17193;SDS011;8713;48.388;10.928;2023-03-04T15:43:16;9.68;;;5.35;;
17193;SDS011;8713;48.388;10.928;2023-03-04T15:44:26;11.93;;;6.50;;
17193;SDS011;8713;48.388;10.928;2023-03-04T15:45:54;12.85;;;7.35;;
17193;SDS011;8713;48.388;10.928;2023-03-04T15:47:23;13.57;;;7.18;;
17193;SDS011;8713;48.388;10.928;2023-03-04T15:48:52;13.23;;;7.43;;
17193;SDS011;8713;48.388;10.928;2023-03-04T15:50:20;12.88;;;7.07;;
17193;SDS011;8713;48.388;10.928;2023-03-04T15:51:49;13.50;;;6.57;;
17193;SDS011;8713;48.388;10.928;2023-03-04T15:53:36;12.93;;;6.40;;
17193;SDS011;8713;48.388;10.928;2023-03-04T15:55:13;10.52;;;5.10;;
17193;SDS011;8713;48.388;10.928;2023-03-04T15:56:43;12.40;;;6.05;;
17193;SDS011;8713;48.388;10.928;2023-03-04T15:58:12;9.15;;;4.70;;
17193;SDS011;8713;48.388;10.928;2023-03-04T15:59:41;12.35;;;6.28;;
17193;SDS011;8713;48.388;10.928;2023-03-04T16:01:13;8.52;;;4.50;;
17193;SDS011;8713;48.388;10.928;2023-03-04T16:02:43;10.05;;;5.43;;
17193;SDS011;8713;48.388;10.928;2023-03-04T16:04:15;9.90;;;4.85;;
17193;SDS011;8713;48.388;10.928;2023-03-04T16:05:45;11.90;;;6.53;;
17193;SDS011;8713;48.388;10.928;2023-03-04T16:07:16;11.57;;;5.90;;
17193;SDS011;8713;48.388;10.928;2023-03-04T16:08:46;9.30;;;5.30;;
17193;SDS011;8713;48.388;10.928;2023-03-04T16:10:17;8.20;;;4.43;;
17193;SDS011;8713;48.388;10.928;2023-03-04T16:11:48;8.75;;;4.82;;
17193;SDS011;8713;48.388;10.928;2023-03-04T16:13:18;8.52;;;5.07;;
17193;SDS011;8713;48.388;10.928;2023-03-04T16:14:50;9.73;;;5.65;;
17193;SDS011;8713;48.388;10.928;2023-03-04T16:16:19;9.40;;;5.93;;
17193;SDS011;8713;48.388;10.928;2023-03-04T16:17:48;9.73;;;5.57;;
17193;SDS011;8713;48.388;10.928;2023-03-04T16:19:16;12.98;;;6.85;;
17193;SDS011;8713;48.388;10.928;2023-03-04T16:20:45;7.97;;;4.90;;
17193;SDS011;8713;48.388;10.928;2023-03-04T16:22:16;9.25;;;5.18;;
17193;SDS011;8713;48.388;10.928;2023-03-04T16:23:56;8.27;;;4.80;;
17193;SDS011;8713;48.388;10.928;2023-03-04T16:25:25;12.13;;;6.47;;
17193;SDS011;8713;48.388;10.928;2023-03-04T16:26:54;11.05;;;6.20;;
17193;SDS011;8713;48.388;10.928;2023-03-04T16:28:22;10.77;;;6.40;;
17193;SDS011;8713;48.388;10.928;2023-03-04T16:29:51;11.00;;;5.53;;
17193;SDS011;8713;48.388;10.928;2023-03-04T16:31:20;12.93;;;7.28;;
17193;SDS011;8713;48.388;10.928;2023-03-04T16:32:48;12.90;;;6.45;;
17193;SDS011;8713;48.388;10.928;2023-03-04T16:34:17;10.65;;;5.28;;
17193;SDS011;8713;48.388;10.928;2023-03-04T16:35:45;15.85;;;8.45;;
17193;SDS011;8713;48.388;10.928;2023-03-04T16:37:14;15.32;;;8.43;;
17193;SDS011;8713;48.388;10.928;2023-03-04T16:38:46;13.27;;;6.50;;
17193;SDS011;8713;48.388;10.928;2023-03-04T16:40:15;12.43;;;7.20;;
17193;SDS011;8713;48.388;10.928;2023-03-04T16:41:44;12.70;;;6.57;;
17193;SDS011;8713;48.388;10.928;2023-03-04T16:43:12;10.75;;;5.97;;
17193;SDS011;8713;48.388;10.928;2023-03-04T16:44:41;6.35;;;4.85;;
17193;SDS011;8713;48.388;10.928;2023-03-04T16:46:03;11.30;;;6.03;;
17193;SDS011;8713;48.388;10.928;2023-03-04T16:47:32;7.95;;;4.78;;
17193;SDS011;8713;48.388;10.928;2023-03-04T16:49:01;9.35;;;5.43;;
17193;SDS011;8713;48.388;10.928;2023-03-04T16:50:29;11.57;;;6.13;;
17193;SDS011;8713;48.388;10.928;2023-03-04T16:51:59;8.85;;;5.65;;
17193;SDS011;8713;48.388;10.928;2023-03-04T16:53:28;10.93;;;5.82;;
17193;SDS011;8713;48.388;10.928;2023-03-04T16:55:00;7.20;;;5.05;;
17193;SDS011;8713;48.388;10.928;2023-03-04T16:56:28;8.95;;;5.50;;
17193;SDS011;8713;48.388;10.928;2023-03-04T16:57:57;11.20;;;6.75;;
17193;SDS011;8713;48.388;10.928;2023-03-04T16:59:08;25.60;;;12.27;;
17193;SDS011;8713;48.388;10.928;2023-03-04T17:00:22;15.10;;;8.73;;
17193;SDS011;8713;48.388;10.928;2023-03-04T17:01:53;13.35;;;6.45;;
17193;SDS011;8713;48.388;10.928;2023-03-04T17:03:21;15.43;;;8.18;;
17193;SDS011;8713;48.388;10.928;2023-03-04T17:04:50;9.63;;;5.57;;
17193;SDS011;8713;48.388;10.928;2023-03-04T17:06:19;10.80;;;5.90;;
17193;SDS011;8713;48.388;10.928;2023-03-04T17:07:47;9.63;;;5.63;;
17193;SDS011;8713;48.388;10.928;2023-03-04T17:09:15;9.63;;;5.63;;
17193;SDS011;8713;48.388;10.928;2023-03-04T17:10:27;9.90;;;6.45;;
17193;SDS011;8713;48.388;10.928;2023-03-04T17:11:56;7.18;;;4.38;;
17193;SDS011;8713;48.388;10.928;2023-03-04T17:13:24;10.02;;;5.47;;
17193;SDS011;8713;48.388;10.928;2023-03-04T17:14:53;10.05;;;4.57;;
17193;SDS011;8713;48.388;10.928;2023-03-04T17:16:21;10.52;;;6.18;;
17193;SDS011;8713;48.388;10.928;2023-03-04T17:17:49;9.40;;;5.32;;
17193;SDS011;8713;48.388;10.928;2023-03-04T17:19:15;11.07;;;6.53;;
17193;SDS011;8713;48.388;10.928;2023-03-04T17:20:43;8.63;;;5.20;;
17193;SDS011;8713;48.388;10.928;2023-03-04T17:22:12;8.60;;;5.28;;
17193;SDS011;8713;48.388;10.928;2023-03-04T17:23:40;10.88;;;5.80;;
17193;SDS011;8713;48.388;10.928;2023-03-04T17:25:09;9.63;;;5.78;;
17193;SDS011;8713;48.388;10.928;2023-03-04T17:26:38;9.85;;;5.05;;
17193;SDS011;8713;48.388;10.928;2023-03-04T17:28:06;8.40;;;4.85;;
17193;SDS011;8713;48.388;10.928;2023-03-04T17:29:16;9.05;;;5.32;;
17193;SDS011;8713;48.388;10.928;2023-03-04T17:30:44;9.95;;;6.10;;
17193;SDS011;8713;48.388;10.928;2023-03-04T17:32:14;17.50;;;10.50;;
17193;SDS011;8713;48.388;10.928;2023-03-04T17:33:42;14.25;;;9.52;;
17193;SDS011;8713;48.388;10.928;2023-03-04T17:35:11;13.48;;;8.90;;
17193;SDS011;8713;48.388;10.928;2023-03-04T17:36:20;15.85;;;9.80;;
17193;SDS011;8713;48.388;10.928;2023-03-04T17:37:29;15.57;;;9.70;;
17193;SDS011;8713;48.388;10.928;2023-03-04T17:38:39;14.45;;;9.07;;
17193;SDS011;8713;48.388;10.928;2023-03-04T17:40:07;16.08;;;10.50;;
17193;SDS011;8713;48.388;10.928;2023-03-04T17:41:40;15.43;;;9.43;;
17193;SDS011;8713;48.388;10.928;2023-03-04T17:43:09;16.42;;;10.15;;
17193;SDS011;8713;48.388;10.928;2023-03-04T17:44:40;17.40;;;9.93;;
17193;SDS011;8713;48.388;10.928;2023-03-04T17:46:10;19.88;;;12.02;;
17193;SDS011;8713;48.388;10.928;2023-03-04T17:47:39;19.02;;;10.18;;
17193;SDS011;8713;48.388;10.928;2023-03-04T17:49:10;18.27;;;11.05;;
17193;SDS011;8713;48.388;10.928;2023-03-04T17:50:46;17.75;;;10.30;;
17193;SDS011;8713;48.388;10.928;2023-03-04T17:52:16;16.83;;;9.98;;
17193;SDS011;8713;48.388;10.928;2023-03-04T17:53:45;15.90;;;9.65;;
17193;SDS011;8713;48.388;10.928;2023-03-04T17:55:01;17.83;;;10.85;;
17193;SDS011;8713;48.388;10.928;2023-03-04T17:56:10;19.55;;;11.48;;
17193;SDS011;8713;48.388;10.928;2023-03-04T17:57:39;17.90;;;10.68;;
17193;SDS011;8713;48.388;10.928;2023-03-04T17:59:09;20.58;;;11.18;;
17193;SDS011;8713;48.388;10.928;2023-03-04T18:00:40;18.58;;;11.43;;
17193;SDS011;8713;48.388;10.928;2023-03-04T18:02:12;17.38;;;9.70;;
17193;SDS011;8713;48.388;10.928;2023-03-04T18:03:42;18.60;;;11.73;;
17193;SDS011;8713;48.388;10.928;2023-03-04T18:05:10;18.88;;;10.70;;
17193;SDS011;8713;48.388;10.928;2023-03-04T18:06:39;17.38;;;11.02;;
17193;SDS011;8713;48.388;10.928;2023-03-04T18:08:07;20.67;;;11.35;;
17193;SDS011;8713;48.388;10.928;2023-03-04T18:09:35;18.80;;;11.65;;
17193;SDS011;8713;48.388;10.928;2023-03-04T18:11:04;17.20;;;10.18;;
17193;SDS011;8713;48.388;10.928;2023-03-04T18:12:32;19.83;;;11.65;;
17193;SDS011;8713;48.388;10.928;2023-03-04T18:14:00;19.27;;;10.13;;
17193;SDS011;8713;48.388;10.928;2023-03-04T18:15:28;22.88;;;12.27;;
17193;SDS011;8713;48.388;10.928;2023-03-04T18:16:57;22.13;;;12.77;;
17193;SDS011;8713;48.388;10.928;2023-03-04T18:18:25;22.75;;;12.60;;
17193;SDS011;8713;48.388;10.928;2023-03-04T18:19:53;19.98;;;12.15;;
17193;SDS011;8713;48.388;10.928;2023-03-04T18:21:04;19.88;;;11.85;;
17193;SDS011;8713;48.388;10.928;2023-03-04T18:22:32;23.45;;;13.25;;
17193;SDS011;8713;48.388;10.928;2023-03-04T18:24:01;21.60;;;12.95;;
17193;SDS011;8713;48.388;10.928;2023-03-04T18:25:28;21.30;;;12.25;;
17193;SDS011;8713;48.388;10.928;2023-03-04T18:26:58;17.63;;;11.80;;
17193;SDS011;8713;48.388;10.928;2023-03-04T18:28:26;21.02;;;12.07;;
17193;SDS011;8713;48.388;10.928;2023-03-04T18:29:54;18.52;;;10.48;;
17193;SDS011;8713;48.388;10.928;2023-03-04T18:31:26;12.48;;;6.85;;
17193;SDS011;8713;48.388;10.928;2023-03-04T18:32:52;11.27;;;5.95;;
17193;SDS011;8713;48.388;10.928;2023-03-04T18:34:22;7.63;;;4.60;;
17193;SDS011;8713;48.388;10.928;2023-03-04T18:35:55;12.32;;;5.93;;
17193;SDS011;8713;48.388;10.928;2023-03-04T18:37:09;9.60;;;6.15;;
17193;SDS011;8713;48.388;10.928;2023-03-04T18:38:24;13.32;;;6.68;;